createdAt,value
2022-08-24T00:01:36.135Z,6.60
2022-08-24T00:04:22.946Z,6.07
2022-08-24T00:07:23.717Z,9.40
2022-08-24T00:10:15.559Z,5.50
2022-08-24T00:13:07.568Z,12.47
2022-08-24T00:15:56.117Z,5.77
2022-08-24T00:18:47.132Z,11.10
2022-08-24T00:21:34.119Z,6.27
2022-08-24T00:24:21.190Z,5.77
2022-08-24T00:27:08.651Z,4.07
2022-08-24T00:29:57.196Z,7.27
2022-08-24T00:32:44.202Z,10.87
2022-08-24T00:35:31.203Z,5.07
2022-08-24T00:38:17.880Z,5.63
2022-08-24T00:41:05.954Z,6.87
2022-08-24T00:43:58.435Z,7.57
2022-08-24T00:46:51.974Z,4.10
2022-08-24T00:49:43.376Z,8.23
2022-08-24T00:52:34.053Z,10.03
2022-08-24T00:55:24.508Z,5.60
2022-08-24T00:58:17.015Z,10.30
2022-08-24T01:01:06.989Z,4.20
2022-08-24T01:03:58.222Z,9.23
2022-08-24T01:06:46.288Z,6.10
2022-08-24T01:09:33.309Z,7.30
2022-08-24T01:12:19.920Z,5.60
2022-08-24T01:15:10.538Z,6.23
2022-08-24T01:18:15.116Z,10.20
2022-08-24T01:21:15.893Z,5.73
2022-08-24T01:24:05.848Z,4.90
2022-08-24T01:26:52.849Z,8.10
2022-08-24T01:29:42.075Z,4.80
2022-08-24T01:32:29.271Z,8.40
2022-08-24T01:35:15.957Z,5.93
2022-08-24T01:38:07.807Z,4.70
2022-08-24T01:41:00.707Z,6.30
2022-08-24T01:43:47.652Z,6.77
2022-08-24T01:46:34.926Z,7.97
2022-08-24T01:49:24.017Z,9.20
2022-08-24T01:52:13.225Z,4.17
2022-08-24T01:55:00.599Z,9.87
2022-08-24T01:57:48.883Z,6.70
2022-08-24T02:00:37.799Z,7.93
2022-08-24T02:03:29.532Z,8.87
2022-08-24T02:06:19.810Z,4.67
2022-08-24T02:09:07.700Z,5.70
2022-08-24T02:11:55.249Z,9.20
2022-08-24T02:14:44.390Z,4.87
2022-08-24T02:17:31.829Z,5.20
2022-08-24T02:20:19.127Z,6.23
2022-08-24T02:23:07.221Z,5.10
2022-08-24T02:25:54.035Z,7.00
2022-08-24T02:28:41.122Z,8.50
2022-08-24T02:31:29.536Z,6.00
2022-08-24T02:34:16.341Z,9.80
2022-08-24T02:37:04.281Z,11.17
2022-08-24T02:39:50.749Z,6.93
2022-08-24T02:42:39.576Z,6.73
2022-08-24T02:45:26.775Z,9.60
2022-08-24T02:48:15.213Z,6.13
2022-08-24T02:51:01.768Z,9.47
2022-08-24T02:53:49.146Z,4.73
2022-08-24T02:56:37.264Z,6.77
2022-08-24T02:59:24.784Z,10.90
2022-08-24T03:02:11.919Z,7.60
2022-08-24T03:05:00.016Z,6.97
2022-08-24T03:07:46.954Z,4.67
2022-08-24T03:10:34.375Z,9.23
2022-08-24T03:13:22.099Z,6.57
2022-08-24T03:16:08.960Z,7.23
2022-08-24T03:18:56.042Z,6.10
2022-08-24T03:21:45.820Z,7.47
2022-08-24T03:24:32.473Z,9.07
2022-08-24T03:27:19.983Z,5.23
2022-08-24T03:30:09.718Z,7.37
2022-08-24T03:32:56.408Z,10.10
2022-08-24T03:35:43.217Z,8.00
2022-08-24T03:38:34.679Z,6.83
2022-08-24T03:41:21.575Z,14.27
2022-08-24T03:44:08.783Z,10.23
2022-08-24T03:46:56.625Z,10.10
2022-08-24T03:49:46.025Z,10.40
2022-08-24T03:52:34.049Z,10.57
2022-08-24T03:55:22.826Z,11.43
2022-08-24T03:58:09.332Z,17.50
2022-08-24T04:00:56.136Z,16.37
2022-08-24T04:03:45.712Z,19.07
2022-08-24T04:06:33.587Z,7.00
2022-08-24T04:09:20.989Z,11.57
2022-08-24T04:12:09.993Z,35.60
2022-08-24T04:14:57.028Z,7.03
2022-08-24T04:17:45.270Z,26.67
2022-08-24T04:20:32.195Z,32.97
2022-08-24T04:23:19.182Z,42.13
2022-08-24T04:26:06.294Z,14.03
2022-08-24T04:28:55.970Z,8.00
2022-08-24T04:31:44.266Z,40.47
2022-08-24T04:34:31.428Z,7.63
2022-08-24T04:37:18.500Z,53.30
2022-08-24T04:40:13.924Z,6.07
2022-08-24T04:43:06.335Z,6.70
2022-08-24T04:45:55.561Z,7.63
2022-08-24T04:48:44.674Z,15.23
2022-08-24T04:51:36.362Z,7.53
2022-08-24T04:54:24.874Z,6.73
2022-08-24T04:57:25.606Z,8.93
2022-08-24T05:00:13.949Z,12.23
2022-08-24T05:03:05.159Z,11.20
2022-08-24T05:05:53.015Z,9.67
2022-08-24T05:08:39.809Z,19.27
2022-08-24T05:11:26.920Z,10.93
2022-08-24T05:14:13.961Z,20.97
2022-08-24T05:17:00.801Z,16.60
2022-08-24T05:19:52.090Z,14.30
2022-08-24T05:22:39.357Z,38.40
2022-08-24T05:25:26.222Z,37.70
2022-08-24T05:28:13.417Z,8.67
2022-08-24T05:31:09.225Z,11.17
2022-08-24T05:33:56.861Z,9.97
2022-08-24T05:36:45.492Z,63.43
2022-08-24T05:39:41.325Z,48.23
2022-08-24T05:42:28.642Z,10.50
2022-08-24T05:45:16.151Z,12.53
2022-08-24T05:48:03.806Z,11.80
2022-08-24T05:51:10.864Z,17.60
2022-08-24T05:54:09.856Z,17.40
2022-08-24T05:57:08.546Z,20.33
2022-08-24T06:00:01.999Z,20.00
2022-08-24T06:02:52.983Z,16.40
2022-08-24T06:05:42.316Z,13.87
2022-08-24T06:08:30.137Z,17.00
2022-08-24T06:11:29.770Z,17.20
2022-08-24T06:14:23.883Z,25.87
2022-08-24T06:17:18.696Z,17.97
2022-08-24T06:20:07.466Z,20.10
2022-08-24T06:22:53.903Z,27.80
2022-08-24T06:26:00.126Z,24.80
2022-08-24T06:28:48.235Z,24.07
2022-08-24T06:31:39.832Z,21.40
2022-08-24T06:34:28.938Z,22.73
2022-08-24T06:37:16.771Z,24.10
2022-08-24T06:40:05.298Z,23.23
2022-08-24T06:42:54.421Z,26.37
2022-08-24T06:45:53.615Z,28.63
2022-08-24T06:48:43.100Z,36.77
2022-08-24T06:51:31.904Z,41.43
2022-08-24T06:54:20.897Z,27.67
2022-08-24T06:57:08.310Z,27.83
2022-08-24T06:59:55.256Z,25.00
2022-08-24T07:02:43.187Z,26.23
2022-08-24T07:05:30.278Z,30.23
2022-08-24T07:08:52.523Z,27.33
2022-08-24T07:11:39.388Z,32.50
2022-08-24T07:14:26.268Z,27.27
2022-08-24T07:17:13.031Z,29.50
2022-08-24T07:20:01.563Z,25.50
2022-08-24T07:23:08.175Z,29.97
2022-08-24T07:25:56.178Z,27.63
2022-08-24T07:28:45.556Z,33.93
2022-08-24T07:31:35.516Z,31.43
2022-08-24T07:34:31.203Z,26.67
2022-08-24T07:37:20.585Z,25.37
2022-08-24T07:40:09.889Z,37.40
2022-08-24T07:42:59.049Z,29.47
2022-08-24T07:45:46.044Z,37.67
2022-08-24T07:48:32.899Z,27.73
2022-08-24T07:51:20.771Z,37.77
2022-08-24T07:54:13.218Z,38.03
2022-08-24T07:57:04.572Z,32.47
2022-08-24T07:59:52.507Z,39.27
2022-08-24T08:02:39.312Z,28.40
2022-08-24T08:05:26.753Z,27.27
2022-08-24T08:08:15.523Z,29.80
2022-08-24T08:11:04.984Z,28.20
2022-08-24T08:13:51.894Z,40.10
2022-08-24T08:16:39.311Z,31.73
2022-08-24T08:19:26.013Z,37.80
2022-08-24T08:22:35.531Z,31.37
2022-08-24T08:25:44.406Z,27.53
2022-08-24T08:28:43.302Z,26.47
2022-08-24T08:31:30.201Z,25.63
2022-08-24T08:34:21.735Z,25.33
2022-08-24T08:37:08.755Z,26.00
2022-08-24T08:39:55.900Z,29.30
2022-08-24T08:43:01.444Z,36.33
2022-08-24T08:46:08.422Z,29.90
2022-08-24T08:49:45.894Z,26.43
2022-08-24T08:53:06.184Z,34.07
2022-08-24T08:56:03.433Z,33.77
2022-08-24T08:59:01.676Z,38.33
2022-08-24T09:02:26.979Z,33.27
2022-08-24T09:06:00.730Z,32.50
2022-08-24T09:09:12.237Z,43.60
2022-08-24T09:12:10.041Z,42.23
2022-08-24T09:15:12.022Z,41.40
2022-08-24T09:18:18.079Z,45.00
2022-08-24T09:21:16.828Z,40.53
2022-08-24T09:24:37.960Z,40.07
2022-08-24T09:27:50.410Z,44.53
2022-08-24T09:30:57.860Z,47.23
2022-08-24T09:33:57.370Z,55.00
2022-08-24T09:36:53.985Z,52.03
2022-08-24T09:40:01.985Z,46.53
2022-08-24T09:43:21.034Z,40.87
2022-08-24T09:46:39.296Z,48.47
2022-08-24T09:50:00.685Z,47.00
2022-08-24T09:53:26.483Z,41.60
2022-08-24T09:56:25.887Z,36.13
2022-08-24T09:59:52.620Z,48.37
2022-08-24T10:03:02.795Z,44.53
2022-08-24T10:06:08.341Z,47.30
2022-08-24T10:09:24.019Z,42.17
2022-08-24T10:12:22.860Z,45.77
2022-08-24T10:15:11.664Z,48.13
2022-08-24T10:18:13.584Z,38.53
2022-08-24T10:21:28.705Z,43.27
2022-08-24T10:24:30.928Z,38.40
2022-08-24T10:27:47.928Z,49.13
2022-08-24T10:30:48.448Z,41.03
2022-08-24T10:33:46.131Z,36.07
2022-08-24T10:36:49.443Z,41.10
2022-08-24T10:40:15.787Z,37.67
2022-08-24T10:43:37.566Z,38.17
2022-08-24T10:46:46.664Z,29.63
2022-08-24T10:50:02.571Z,31.77
2022-08-24T10:53:04.742Z,34.93
2022-08-24T10:56:19.177Z,36.77
2022-08-24T10:59:19.866Z,35.27
2022-08-24T11:02:28.871Z,39.80
2022-08-24T11:05:29.699Z,28.17
2022-08-24T11:08:23.732Z,37.00
2022-08-24T11:11:13.239Z,37.93
2022-08-24T11:14:03.022Z,29.93
2022-08-24T11:16:52.581Z,31.70
2022-08-24T11:19:42.624Z,26.07
2022-08-24T11:22:33.138Z,21.60
2022-08-24T11:25:26.740Z,21.33
2022-08-24T11:28:21.732Z,27.53
2022-08-24T11:31:12.604Z,37.73
2022-08-24T11:34:03.679Z,26.47
2022-08-24T11:36:50.261Z,21.53
2022-08-24T11:39:38.944Z,24.10
2022-08-24T11:42:39.542Z,22.73
2022-08-24T11:45:35.467Z,30.03
2022-08-24T11:48:36.207Z,22.57
2022-08-24T11:51:36.209Z,22.73
2022-08-24T11:54:37.267Z,22.37
2022-08-24T11:57:36.092Z,20.47
2022-08-24T12:00:27.011Z,19.43
2022-08-24T12:03:31.072Z,22.80
2022-08-24T12:06:35.927Z,28.90
2022-08-24T12:09:34.065Z,21.63
2022-08-24T12:12:28.707Z,17.90
2022-08-24T12:15:25.753Z,21.37
2022-08-24T12:18:28.294Z,20.57
2022-08-24T12:21:16.993Z,22.53
2022-08-24T12:24:08.974Z,17.53
2022-08-24T12:27:00.790Z,18.40
2022-08-24T12:29:53.426Z,15.93
2022-08-24T12:32:44.069Z,18.57
2022-08-24T12:35:35.287Z,22.80
2022-08-24T12:38:27.842Z,20.03
2022-08-24T12:41:20.295Z,18.07
2022-08-24T12:44:12.574Z,17.30
2022-08-24T12:46:59.452Z,17.43
2022-08-24T12:49:52.559Z,15.73
2022-08-24T12:53:14.329Z,19.27
2022-08-24T12:56:34.765Z,15.20
2022-08-24T12:59:25.420Z,18.70
2022-08-24T13:02:31.160Z,14.90
2022-08-24T13:05:21.601Z,11.27
2022-08-24T13:08:15.603Z,15.97
2022-08-24T13:11:06.426Z,14.70
2022-08-24T13:14:17.559Z,17.80
2022-08-24T13:17:14.256Z,13.90
2022-08-24T13:20:18.832Z,17.13
2022-08-24T13:23:16.102Z,15.57
2022-08-24T13:26:24.427Z,13.03
2022-08-24T13:29:11.818Z,16.73
2022-08-24T13:32:00.281Z,15.70
2022-08-24T13:34:49.383Z,14.13
2022-08-24T13:37:36.738Z,14.93
2022-08-24T13:40:28.031Z,12.13
2022-08-24T13:43:21.231Z,13.70
2022-08-24T13:46:20.357Z,14.93
2022-08-24T13:49:22.653Z,18.40
2022-08-24T13:52:20.183Z,15.97
2022-08-24T13:55:23.454Z,13.93
2022-08-24T13:58:23.734Z,12.93
2022-08-24T14:01:30.779Z,12.83
2022-08-24T14:04:38.085Z,13.83
2022-08-24T14:07:31.121Z,10.50
2022-08-24T14:10:35.000Z,14.13
2022-08-24T14:13:36.605Z,10.03
2022-08-24T14:16:56.150Z,11.93
2022-08-24T14:19:51.014Z,8.93
2022-08-24T14:22:51.499Z,10.70
2022-08-24T14:25:39.100Z,14.10
2022-08-24T14:28:45.425Z,10.23
2022-08-24T14:31:32.752Z,9.07
2022-08-24T14:34:32.807Z,11.70
2022-08-24T14:37:23.934Z,14.87
2022-08-24T14:40:21.271Z,11.10
2022-08-24T14:43:28.550Z,10.17
2022-08-24T14:46:29.145Z,13.20
2022-08-24T14:49:29.715Z,10.50
2022-08-24T14:52:41.999Z,7.67
2022-08-24T14:55:35.614Z,14.33
2022-08-24T14:58:35.834Z,10.00
2022-08-24T15:01:47.002Z,9.60
2022-08-24T15:04:41.244Z,14.13
2022-08-24T15:07:31.790Z,10.43
2022-08-24T15:10:24.900Z,11.33
2022-08-24T15:13:14.855Z,12.97
2022-08-24T15:16:06.045Z,7.63
2022-08-24T15:19:03.544Z,8.77
2022-08-24T15:21:57.332Z,11.07
2022-08-24T15:24:48.370Z,8.13
2022-08-24T15:27:43.848Z,9.67
2022-08-24T15:30:34.513Z,8.30
2022-08-24T15:33:21.640Z,13.07
2022-08-24T15:36:12.782Z,9.20
2022-08-24T15:38:59.728Z,9.80
2022-08-24T15:41:47.239Z,9.07
2022-08-24T15:44:34.418Z,9.47
2022-08-24T15:47:27.986Z,9.10
2022-08-24T15:50:25.424Z,12.70
2022-08-24T15:53:30.695Z,9.63
2022-08-24T15:56:36.020Z,8.53
2022-08-24T15:59:28.131Z,7.93
2022-08-24T16:02:33.393Z,13.40
2022-08-24T16:05:36.365Z,9.40
2022-08-24T16:08:25.025Z,11.73
2022-08-24T16:11:41.960Z,8.97
2022-08-24T16:14:31.112Z,9.90
2022-08-24T16:17:37.101Z,9.97
2022-08-24T16:20:33.191Z,7.10
2022-08-24T16:23:27.234Z,7.97
2022-08-24T16:26:26.641Z,13.57
2022-08-24T16:29:46.161Z,8.20
2022-08-24T16:32:49.778Z,8.73
2022-08-24T16:35:40.062Z,13.63
2022-08-24T16:38:29.408Z,13.13
2022-08-24T16:41:19.505Z,7.70
2022-08-24T16:44:06.236Z,8.17
2022-08-24T16:46:53.018Z,5.97
2022-08-24T16:49:40.401Z,12.53
2022-08-24T16:52:27.413Z,11.53
2022-08-24T16:55:15.256Z,10.67
2022-08-24T16:58:02.915Z,9.80
2022-08-24T17:00:49.623Z,12.17
2022-08-24T17:03:36.244Z,9.07
2022-08-24T17:06:23.251Z,8.57
2022-08-24T17:09:09.932Z,10.67
2022-08-24T17:11:58.422Z,13.70
2022-08-24T17:14:45.300Z,14.73
2022-08-24T17:17:31.985Z,16.13
2022-08-24T17:20:19.084Z,12.87
2022-08-24T17:23:06.086Z,13.87
2022-08-24T17:25:54.034Z,12.70
2022-08-24T17:28:47.199Z,14.70
2022-08-24T17:31:34.245Z,16.70
2022-08-24T17:34:22.080Z,15.00
2022-08-24T17:37:11.528Z,17.63
2022-08-24T17:39:59.693Z,13.27
2022-08-24T17:42:51.275Z,16.03
2022-08-24T17:45:39.699Z,20.23
2022-08-24T17:48:27.965Z,18.27
2022-08-24T17:51:15.257Z,18.90
2022-08-24T17:54:01.988Z,18.90
2022-08-24T17:56:51.088Z,19.23
2022-08-24T17:59:38.644Z,17.73
2022-08-24T18:02:26.773Z,20.30
2022-08-24T18:05:14.945Z,15.60
2022-08-24T18:08:03.340Z,17.97
2022-08-24T18:10:49.660Z,22.67
2022-08-24T18:13:37.188Z,19.13
2022-08-24T18:16:27.685Z,16.40
2022-08-24T18:19:16.070Z,16.50
2022-08-24T18:22:04.560Z,17.90
2022-08-24T18:24:51.288Z,19.90
2022-08-24T18:27:38.143Z,15.30
2022-08-24T18:30:31.356Z,20.03
2022-08-24T18:33:21.077Z,19.40
2022-08-24T18:36:09.790Z,21.03
2022-08-24T18:38:56.585Z,19.17
2022-08-24T18:41:49.365Z,13.40
2022-08-24T18:44:38.657Z,16.60
2022-08-24T18:47:25.417Z,17.63
2022-08-24T18:50:12.210Z,17.30
2022-08-24T18:53:03.458Z,16.00
2022-08-24T18:55:50.041Z,15.23
2022-08-24T18:58:36.962Z,13.80
2022-08-24T19:01:25.472Z,15.93
2022-08-24T19:04:14.224Z,14.00
2022-08-24T19:07:00.901Z,12.80
2022-08-24T19:09:49.051Z,13.07
2022-08-24T19:12:39.423Z,14.97
2022-08-24T19:15:39.341Z,12.87
2022-08-24T19:18:28.664Z,12.90
2022-08-24T19:21:27.769Z,20.37
2022-08-24T19:24:26.520Z,15.63
2022-08-24T19:27:15.314Z,15.33
2022-08-24T19:30:04.860Z,13.23
2022-08-24T19:32:59.409Z,14.87
2022-08-24T19:35:46.988Z,13.00
2022-08-24T19:38:34.499Z,14.00
2022-08-24T19:41:22.112Z,16.40
2022-08-24T19:44:28.109Z,21.87
2022-08-24T19:47:16.727Z,12.27
2022-08-24T19:50:08.652Z,14.80
2022-08-24T19:52:58.829Z,16.73
2022-08-24T19:55:50.098Z,11.20
2022-08-24T19:58:44.740Z,19.33
2022-08-24T20:01:37.738Z,15.27
2022-08-24T20:04:25.109Z,13.97
2022-08-24T20:07:17.664Z,13.60
2022-08-24T20:10:04.683Z,14.00
2022-08-24T20:13:00.334Z,15.20
2022-08-24T20:15:47.044Z,11.10
2022-08-24T20:18:36.440Z,9.87
2022-08-24T20:21:26.132Z,18.70
2022-08-24T20:24:16.610Z,12.17
2022-08-24T20:27:03.520Z,13.07
2022-08-24T20:29:50.212Z,15.07
2022-08-24T20:32:37.195Z,19.00
2022-08-24T20:35:29.590Z,15.63
2022-08-24T20:38:19.396Z,18.87
2022-08-24T20:41:06.370Z,14.30
2022-08-24T20:43:52.967Z,12.63
2022-08-24T20:46:41.018Z,15.97
2022-08-24T20:49:34.229Z,18.03
2022-08-24T20:52:22.705Z,10.33
2022-08-24T20:55:10.758Z,11.47
2022-08-24T20:58:00.800Z,13.70
2022-08-24T21:00:47.753Z,9.23
2022-08-24T21:03:35.179Z,11.10
2022-08-24T21:06:21.617Z,9.93
2022-08-24T21:09:12.725Z,12.33
2022-08-24T21:12:01.057Z,11.53
2022-08-24T21:14:47.748Z,8.27
2022-08-24T21:17:37.673Z,13.03
2022-08-24T21:20:25.679Z,14.03
2022-08-24T21:23:12.941Z,12.97
2022-08-24T21:26:03.160Z,9.07
2022-08-24T21:28:49.997Z,11.90
2022-08-24T21:31:37.363Z,12.43
2022-08-24T21:34:41.417Z,14.13
2022-08-24T21:37:28.213Z,13.07
2022-08-24T21:40:15.062Z,14.90
2022-08-24T21:43:03.665Z,9.47
2022-08-24T21:46:01.552Z,14.73
2022-08-24T21:48:48.386Z,25.70
2022-08-24T21:51:35.457Z,9.73
2022-08-24T21:54:22.331Z,12.37
2022-08-24T21:57:09.346Z,16.20
2022-08-24T21:59:57.218Z,12.97
2022-08-24T22:02:44.218Z,11.23
2022-08-24T22:05:31.463Z,13.00
2022-08-24T22:08:18.147Z,10.30
2022-08-24T22:11:04.957Z,9.90
2022-08-24T22:13:52.114Z,10.10
2022-08-24T22:16:40.231Z,12.97
2022-08-24T22:19:26.905Z,12.93
2022-08-24T22:22:13.795Z,15.30
2022-08-24T22:25:00.875Z,13.43
2022-08-24T22:27:48.214Z,9.67
2022-08-24T22:30:35.100Z,17.13
2022-08-24T22:33:23.887Z,11.10
2022-08-24T22:36:11.812Z,10.10
2022-08-24T22:38:59.904Z,15.40
2022-08-24T22:41:46.390Z,11.57
2022-08-24T22:44:34.233Z,14.87
2022-08-24T22:47:20.772Z,11.43
2022-08-24T22:50:10.971Z,10.53
2022-08-24T22:52:57.690Z,9.47
2022-08-24T22:55:44.917Z,12.90
2022-08-24T22:58:31.698Z,13.33
2022-08-24T23:01:23.240Z,13.53
2022-08-24T23:04:13.346Z,19.17
2022-08-24T23:07:01.512Z,12.07
2022-08-24T23:09:48.555Z,10.10
2022-08-24T23:12:35.192Z,10.40
2022-08-24T23:15:21.646Z,10.23
2022-08-24T23:18:28.586Z,18.83
2022-08-24T23:21:14.952Z,12.73
2022-08-24T23:24:03.319Z,11.83
2022-08-24T23:26:50.013Z,13.87
2022-08-24T23:29:37.430Z,12.67
2022-08-24T23:32:24.467Z,13.10
2022-08-24T23:35:11.001Z,13.63
2022-08-24T23:37:57.720Z,15.60
2022-08-24T23:40:45.495Z,15.43
2022-08-24T23:43:32.173Z,11.60
2022-08-24T23:46:18.965Z,10.83
2022-08-24T23:49:08.712Z,10.27
2022-08-24T23:51:55.328Z,13.03
2022-08-24T23:54:42.071Z,11.50
2022-08-24T23:57:30.351Z,11.03
